createdAt,value
2017-08-02T00:00:07.845Z,24.2
2017-08-02T00:01:12.922Z,24.2
2017-08-02T00:02:19.336Z,24.2
2017-08-02T00:03:24.768Z,24.2
2017-08-02T00:04:28.782Z,24.2
2017-08-02T00:05:34.350Z,24.2
2017-08-02T00:06:38.184Z,24.2
2017-08-02T00:07:42.483Z,24.2
2017-08-02T00:08:47.344Z,24.2
2017-08-02T00:09:51.846Z,24.2
2017-08-02T00:10:56.046Z,24.2
2017-08-02T00:12:00.483Z,24.2
2017-08-02T00:13:06.951Z,24.2
2017-08-02T00:14:11.373Z,24.2
2017-08-02T00:15:16.719Z,24.2
2017-08-02T00:16:21.364Z,24.2
2017-08-02T00:17:25.330Z,24.2
2017-08-02T00:18:29.565Z,24.2
2017-08-02T00:19:35.135Z,24.2
2017-08-02T00:20:39.362Z,24.2
2017-08-02T00:21:44.468Z,24.2
2017-08-02T00:22:48.369Z,24.2
2017-08-02T00:23:54.016Z,24.2
2017-08-02T00:24:57.666Z,24.2
2017-08-02T00:26:00.852Z,24.2
2017-08-02T00:27:06.258Z,24.2
2017-08-02T00:28:12.017Z,24.2
2017-08-02T00:29:16.962Z,24.2
2017-08-02T00:30:21.673Z,24.2
2017-08-02T00:31:27.065Z,24.2
2017-08-02T00:32:32.205Z,24.2
2017-08-02T00:33:39.175Z,24.2
2017-08-02T00:34:44.012Z,24.2
2017-08-02T00:35:51.047Z,24.2
2017-08-02T00:36:55.526Z,24.2
2017-08-02T00:37:59.643Z,24.2
2017-08-02T00:39:05.609Z,24.2
2017-08-02T00:40:14.895Z,24.2
2017-08-02T00:41:19.235Z,24.2
2017-08-02T00:42:24.577Z,24.2
2017-08-02T00:43:29.523Z,24.2
2017-08-02T00:44:35.279Z,24.2
2017-08-02T00:45:40.930Z,24.1
2017-08-02T00:46:48.525Z,24.1
2017-08-02T00:47:53.149Z,24.1
2017-08-02T00:48:59.591Z,24.1
2017-08-02T00:50:04.535Z,24.1
2017-08-02T00:51:09.134Z,24.2
2017-08-02T00:52:14.390Z,24.1
2017-08-02T00:53:20.614Z,24.1
2017-08-02T00:54:26.927Z,24.2
2017-08-02T00:55:30.285Z,24.1
2017-08-02T00:56:35.486Z,24.1
2017-08-02T00:57:44.994Z,24.1
2017-08-02T00:58:50.695Z,24.1
2017-08-02T00:59:56.719Z,24.2
2017-08-02T01:01:00.754Z,24.1
2017-08-02T01:02:07.005Z,24.1
2017-08-02T01:03:10.194Z,24.1
2017-08-02T01:04:17.435Z,24.1
2017-08-02T01:05:22.266Z,24.1
2017-08-02T01:06:26.132Z,24.1
2017-08-02T01:07:30.088Z,24.1
2017-08-02T01:08:34.859Z,24.1
2017-08-02T01:09:40.517Z,24.1
2017-08-02T01:10:46.826Z,24.1
2017-08-02T01:11:52.794Z,24.1
2017-08-02T01:12:57.576Z,24.1
2017-08-02T01:14:03.782Z,24.1
2017-08-02T01:15:10.686Z,24.1
2017-08-02T01:16:17.192Z,24.1
2017-08-02T01:17:22.612Z,24.1
2017-08-02T01:18:26.599Z,24.1
2017-08-02T01:19:32.104Z,24.1
2017-08-02T01:20:39.057Z,24.1
2017-08-02T01:21:42.763Z,24.1
2017-08-02T01:22:46.697Z,24.1
2017-08-02T01:23:52.233Z,24.1
2017-08-02T01:24:56.840Z,24.1
2017-08-02T01:26:02.473Z,24.1
2017-08-02T01:27:06.728Z,24.1
2017-08-02T01:28:11.569Z,24.1
2017-08-02T01:29:16.124Z,24.1
2017-08-02T01:30:20.836Z,24.1
2017-08-02T01:31:27.193Z,24.1
2017-08-02T01:32:32.038Z,24.0
2017-08-02T01:33:39.534Z,24.1
2017-08-02T01:34:43.986Z,24.0
2017-08-02T01:35:47.746Z,24.1
2017-08-02T01:36:56.174Z,24.0
2017-08-02T01:37:59.151Z,24.1
2017-08-02T01:39:03.788Z,24.1
2017-08-02T01:40:08.154Z,24.1
2017-08-02T01:41:13.226Z,24.1
2017-08-02T01:42:18.497Z,24.1
2017-08-02T01:43:21.978Z,24.0
2017-08-02T01:44:30.604Z,24.0
2017-08-02T01:45:34.840Z,24.0
2017-08-02T01:46:40.181Z,24.0
2017-08-02T01:47:44.908Z,24.1
2017-08-02T01:48:48.751Z,24.1
2017-08-02T01:49:54.169Z,24.0
2017-08-02T01:50:58.759Z,24.0
2017-08-02T01:52:02.873Z,24.0
2017-08-02T01:53:07.839Z,24.0
2017-08-02T01:54:15.311Z,24.0
2017-08-02T01:55:20.068Z,24.0
2017-08-02T01:56:24.772Z,24.0
2017-08-02T01:57:30.355Z,24.0
2017-08-02T01:58:34.205Z,24.0
2017-08-02T01:59:39.943Z,24.0
2017-08-02T02:00:45.292Z,24.0
2017-08-02T02:01:49.070Z,24.0
2017-08-02T02:02:54.637Z,24.0
2017-08-02T02:04:01.692Z,24.0
2017-08-02T02:05:08.171Z,24.0
2017-08-02T02:06:12.742Z,24.0
2017-08-02T02:07:17.918Z,24.0
2017-08-02T02:08:22.543Z,24.0
2017-08-02T02:09:27.287Z,24.0
2017-08-02T02:10:32.244Z,24.0
2017-08-02T02:11:37.228Z,24.0
2017-08-02T02:12:41.286Z,24.0
2017-08-02T02:13:48.055Z,24.0
2017-08-02T02:14:51.838Z,24.0
2017-08-02T02:15:58.613Z,24.0
2017-08-02T02:17:03.900Z,24.0
2017-08-02T02:18:07.769Z,24.0
2017-08-02T02:19:10.903Z,24.0
2017-08-02T02:20:16.458Z,24.0
2017-08-02T02:21:21.895Z,24.0
2017-08-02T02:22:29.193Z,24.0
2017-08-02T02:23:33.236Z,24.0
2017-08-02T02:24:38.117Z,24.0
2017-08-02T02:25:42.103Z,24.0
2017-08-02T02:26:47.034Z,24.0
2017-08-02T02:27:52.830Z,24.0
2017-08-02T02:28:57.576Z,24.0
2017-08-02T02:30:00.819Z,24.0
2017-08-02T02:31:05.199Z,24.0
2017-08-02T02:32:11.300Z,24.0
2017-08-02T02:33:16.918Z,24.0
2017-08-02T02:34:21.775Z,24.0
2017-08-02T02:35:27.588Z,24.0
2017-08-02T02:36:30.588Z,24.0
2017-08-02T02:37:35.090Z,24.0
2017-08-02T02:38:40.435Z,24.0
2017-08-02T02:39:47.841Z,24.0
2017-08-02T02:40:53.649Z,24.0
2017-08-02T02:42:00.217Z,24.0
2017-08-02T02:43:05.755Z,24.0
2017-08-02T02:44:09.999Z,24.0
2017-08-02T02:45:15.603Z,24.0
2017-08-02T02:46:20.467Z,23.9
2017-08-02T02:47:25.727Z,24.0
2017-08-02T02:48:32.131Z,24.0
2017-08-02T02:49:34.633Z,23.9
2017-08-02T02:50:40.549Z,24.0
2017-08-02T02:51:47.878Z,24.0
2017-08-02T02:52:54.247Z,24.0
2017-08-02T02:53:58.834Z,24.0
2017-08-02T02:55:03.544Z,24.0
2017-08-02T02:56:08.601Z,24.0
2017-08-02T02:57:14.659Z,24.0
2017-08-02T02:58:20.644Z,23.9
2017-08-02T02:59:25.876Z,24.0
2017-08-02T03:00:33.852Z,24.0
2017-08-02T03:01:37.629Z,24.0
2017-08-02T03:02:40.980Z,24.0
2017-08-02T03:03:45.520Z,24.0
2017-08-02T03:04:51.242Z,23.9
2017-08-02T03:05:58.262Z,23.9
2017-08-02T03:07:04.645Z,23.9
2017-08-02T03:08:09.650Z,23.9
2017-08-02T03:09:13.962Z,23.9
2017-08-02T03:10:17.967Z,23.9
2017-08-02T03:11:24.158Z,23.9
2017-08-02T03:12:27.277Z,23.9
2017-08-02T03:13:32.064Z,23.9
2017-08-02T03:14:37.650Z,23.9
2017-08-02T03:15:41.900Z,23.9
2017-08-02T03:16:46.003Z,23.9
2017-08-02T03:17:52.158Z,23.9
2017-08-02T03:18:57.335Z,23.9
2017-08-02T03:20:00.979Z,23.9
2017-08-02T03:21:05.394Z,23.9
2017-08-02T03:22:09.757Z,23.9
2017-08-02T03:23:16.432Z,23.9
2017-08-02T03:24:20.676Z,23.9
2017-08-02T03:25:24.105Z,23.9
2017-08-02T03:26:28.592Z,23.9
2017-08-02T03:27:35.173Z,23.9
2017-08-02T03:28:40.691Z,23.9
2017-08-02T03:29:43.930Z,23.9
2017-08-02T03:30:50.067Z,23.9
2017-08-02T03:31:55.149Z,23.9
2017-08-02T03:32:59.632Z,23.9
2017-08-02T03:34:04.692Z,23.9
2017-08-02T03:35:10.684Z,23.9
2017-08-02T03:36:13.424Z,23.9
2017-08-02T03:37:17.901Z,23.9
2017-08-02T03:38:21.308Z,23.9
2017-08-02T03:39:25.980Z,23.9
2017-08-02T03:40:30.708Z,23.9
2017-08-02T03:41:36.315Z,23.9
2017-08-02T03:42:43.201Z,23.9
2017-08-02T03:43:49.311Z,23.9
2017-08-02T03:44:55.354Z,23.9
2017-08-02T03:45:59.091Z,23.9
2017-08-02T03:47:03.708Z,23.9
2017-08-02T03:48:09.611Z,23.9
2017-08-02T03:49:14.903Z,23.9
2017-08-02T03:50:18.782Z,23.9
2017-08-02T03:51:24.024Z,23.9
2017-08-02T03:52:29.089Z,23.9
2017-08-02T03:53:36.970Z,23.9
2017-08-02T03:54:42.420Z,23.9
2017-08-02T03:55:47.383Z,23.9
2017-08-02T03:56:51.355Z,23.9
2017-08-02T03:57:55.014Z,23.9
2017-08-02T03:58:59.467Z,23.9
2017-08-02T04:00:03.930Z,23.9
2017-08-02T04:01:10.323Z,23.9
2017-08-02T04:02:15.217Z,23.9
2017-08-02T04:03:20.232Z,23.9
2017-08-02T04:04:26.734Z,23.9
2017-08-02T04:05:31.740Z,23.9
2017-08-02T04:06:35.045Z,23.9
2017-08-02T04:07:40.976Z,23.9
2017-08-02T04:08:46.249Z,23.9
2017-08-02T04:09:48.971Z,23.9
2017-08-02T04:10:54.836Z,23.9
2017-08-02T04:11:59.609Z,23.9
2017-08-02T04:13:05.457Z,23.9
2017-08-02T04:14:10.355Z,23.9
2017-08-02T04:15:15.720Z,23.9
2017-08-02T04:16:21.267Z,23.9
2017-08-02T04:17:26.254Z,23.9
2017-08-02T04:18:31.114Z,24.0
2017-08-02T04:19:34.777Z,24.0
2017-08-02T04:20:38.731Z,24.0
2017-08-02T04:21:43.905Z,23.9
2017-08-02T04:22:48.623Z,23.9
2017-08-02T04:23:53.557Z,24.0
2017-08-02T04:24:56.818Z,23.9
2017-08-02T04:26:04.363Z,23.9
2017-08-02T04:27:08.284Z,23.9
2017-08-02T04:28:12.925Z,23.9
2017-08-02T04:29:18.387Z,24.0
2017-08-02T04:30:23.445Z,24.0
2017-08-02T04:31:28.944Z,24.0
2017-08-02T04:32:33.613Z,24.0
2017-08-02T04:33:39.303Z,23.9
2017-08-02T04:34:44.801Z,24.0
2017-08-02T04:35:50.285Z,24.0
2017-08-02T04:36:53.725Z,24.0
2017-08-02T04:37:59.305Z,24.0
2017-08-02T04:39:02.637Z,24.0
2017-08-02T04:40:08.794Z,24.0
2017-08-02T04:41:11.911Z,24.0
2017-08-02T04:42:18.302Z,24.0
2017-08-02T04:43:21.313Z,24.0
2017-08-02T04:44:25.976Z,24.0
2017-08-02T04:45:31.180Z,24.0
2017-08-02T04:46:34.237Z,24.0
2017-08-02T04:47:40.334Z,24.0
2017-08-02T04:48:45.282Z,24.0
2017-08-02T04:49:50.602Z,24.0
2017-08-02T04:50:54.804Z,24.0
2017-08-02T04:51:58.812Z,24.0
2017-08-02T04:53:03.806Z,24.0
2017-08-02T04:54:10.324Z,24.0
2017-08-02T04:55:15.744Z,24.0
2017-08-02T04:56:19.481Z,24.0
2017-08-02T04:57:25.120Z,24.0
2017-08-02T04:58:31.946Z,24.0
2017-08-02T04:59:36.827Z,24.1
2017-08-02T05:00:41.427Z,24.1
2017-08-02T05:01:45.528Z,24.1
2017-08-02T05:02:51.342Z,24.1
2017-08-02T05:03:55.007Z,24.1
2017-08-02T05:04:59.574Z,24.1
2017-08-02T05:06:05.446Z,24.1
2017-08-02T05:07:10.540Z,24.1
2017-08-02T05:08:14.504Z,24.1
2017-08-02T05:09:20.871Z,24.1
2017-08-02T05:10:25.624Z,24.1
2017-08-02T05:11:29.585Z,24.1
2017-08-02T05:12:33.635Z,24.1
2017-08-02T05:13:40.349Z,24.1
2017-08-02T05:14:45.849Z,24.1
2017-08-02T05:15:52.055Z,24.1
2017-08-02T05:16:55.937Z,24.1
2017-08-02T05:18:02.150Z,24.1
2017-08-02T05:19:08.577Z,24.1
2017-08-02T05:20:11.793Z,24.2
2017-08-02T05:21:17.158Z,24.1
2017-08-02T05:22:22.579Z,24.1
2017-08-02T05:23:26.972Z,24.2
2017-08-02T05:24:32.994Z,24.2
2017-08-02T05:25:38.445Z,24.2
2017-08-02T05:26:43.304Z,24.2
2017-08-02T05:27:47.549Z,24.2
2017-08-02T05:28:52.997Z,24.2
2017-08-02T05:29:58.010Z,24.2
2017-08-02T05:31:02.792Z,24.2
2017-08-02T05:32:08.464Z,24.2
2017-08-02T05:33:12.381Z,24.2
2017-08-02T05:34:16.250Z,24.3
2017-08-02T05:35:21.737Z,24.3
2017-08-02T05:36:27.153Z,24.3
2017-08-02T05:37:31.532Z,24.3
2017-08-02T05:38:37.327Z,24.3
2017-08-02T05:39:44.253Z,24.3
2017-08-02T05:40:48.768Z,24.4
2017-08-02T05:41:54.550Z,24.4
2017-08-02T05:42:57.883Z,24.4
2017-08-02T05:44:03.141Z,24.4
2017-08-02T05:45:08.533Z,24.4
2017-08-02T05:46:15.783Z,24.4
2017-08-02T05:47:20.865Z,24.4
2017-08-02T05:48:27.909Z,24.4
2017-08-02T05:49:34.072Z,24.4
2017-08-02T05:50:38.227Z,24.4
2017-08-02T05:51:42.808Z,24.5
2017-08-02T05:52:48.689Z,24.4
2017-08-02T05:53:56.882Z,24.4
2017-08-02T05:55:02.708Z,24.4
2017-08-02T05:56:08.082Z,24.5
2017-08-02T05:57:13.937Z,24.5
2017-08-02T05:58:17.780Z,24.5
2017-08-02T05:59:22.655Z,24.5
2017-08-02T06:00:27.928Z,24.5
2017-08-02T06:01:32.478Z,24.4
2017-08-02T06:02:36.301Z,24.5
2017-08-02T06:03:42.885Z,24.4
2017-08-02T06:04:48.452Z,24.4
2017-08-02T06:05:52.402Z,24.4
2017-08-02T06:06:59.617Z,24.4
2017-08-02T06:08:07.631Z,24.4
2017-08-02T06:09:12.791Z,24.5
2017-08-02T06:10:18.019Z,24.5
2017-08-02T06:11:24.107Z,24.5
2017-08-02T06:12:28.799Z,24.5
2017-08-02T06:13:35.074Z,24.5
2017-08-02T06:14:40.954Z,24.5
2017-08-02T06:15:45.350Z,24.5
2017-08-02T06:16:50.848Z,24.5
2017-08-02T06:17:58.169Z,24.5
2017-08-02T06:19:04.159Z,24.5
2017-08-02T06:20:10.284Z,24.5
2017-08-02T06:21:18.228Z,24.5
2017-08-02T06:22:22.833Z,24.5
2017-08-02T06:23:29.749Z,24.6
2017-08-02T06:24:39.626Z,24.5
2017-08-02T06:25:43.528Z,24.5
2017-08-02T06:26:47.738Z,24.6
2017-08-02T06:27:52.192Z,24.5
2017-08-02T06:28:57.578Z,24.5
2017-08-02T06:30:00.764Z,24.6
2017-08-02T06:31:06.141Z,24.5
2017-08-02T06:32:12.180Z,24.5
2017-08-02T06:33:18.982Z,24.5
2017-08-02T06:34:23.139Z,24.5
2017-08-02T06:35:26.366Z,24.5
2017-08-02T06:36:31.790Z,24.5
2017-08-02T06:37:38.653Z,24.5
2017-08-02T06:38:44.658Z,24.5
2017-08-02T06:39:48.613Z,24.6
2017-08-02T06:40:53.982Z,24.5
2017-08-02T06:41:58.731Z,24.6
2017-08-02T06:43:02.999Z,24.6
2017-08-02T06:44:07.156Z,24.5
2017-08-02T06:45:11.001Z,24.6
2017-08-02T06:46:16.531Z,24.6
2017-08-02T06:47:20.687Z,24.6
2017-08-02T06:48:26.034Z,24.7
2017-08-02T06:49:29.367Z,24.7
2017-08-02T06:50:35.978Z,24.8
2017-08-02T06:51:40.386Z,24.9
2017-08-02T06:52:45.821Z,24.9
2017-08-02T06:53:49.594Z,24.9
2017-08-02T06:54:53.413Z,24.9
2017-08-02T06:55:59.362Z,24.9
2017-08-02T06:57:04.099Z,24.9
2017-08-02T06:58:09.661Z,24.9
2017-08-02T06:59:15.131Z,24.9
2017-08-02T07:00:21.531Z,24.9
2017-08-02T07:01:28.531Z,24.9
2017-08-02T07:02:33.555Z,25.0
2017-08-02T07:03:41.530Z,24.9
2017-08-02T07:04:48.236Z,25.0
2017-08-02T07:05:52.640Z,24.9
2017-08-02T07:06:56.940Z,25.0
2017-08-02T07:08:01.378Z,24.9
2017-08-02T07:09:05.810Z,24.9
2017-08-02T07:10:12.104Z,24.9
2017-08-02T07:11:17.186Z,25.0
2017-08-02T07:12:22.546Z,25.0
2017-08-02T07:13:30.146Z,24.9
2017-08-02T07:14:35.248Z,25.0
2017-08-02T07:15:40.602Z,25.1
2017-08-02T07:16:49.052Z,25.1
2017-08-02T07:17:52.431Z,25.0
2017-08-02T07:18:57.346Z,25.0
2017-08-02T07:20:05.431Z,25.1
2017-08-02T07:21:10.644Z,25.2
2017-08-02T07:22:16.068Z,25.2
2017-08-02T07:23:19.907Z,25.3
2017-08-02T07:24:25.722Z,25.2
2017-08-02T07:25:32.069Z,25.1
2017-08-02T07:26:37.857Z,25.1
2017-08-02T07:27:43.581Z,25.2
2017-08-02T07:28:48.416Z,25.3
2017-08-02T07:29:55.074Z,25.4
2017-08-02T07:30:59.987Z,25.4
2017-08-02T07:32:05.712Z,25.5
2017-08-02T07:33:11.028Z,25.5
2017-08-02T07:34:16.062Z,25.5
2017-08-02T07:35:20.730Z,25.5
2017-08-02T07:36:26.768Z,25.4
2017-08-02T07:37:30.695Z,25.5
2017-08-02T07:38:35.818Z,25.4
2017-08-02T07:39:40.738Z,25.4
2017-08-02T07:40:45.127Z,25.4
2017-08-02T07:41:50.537Z,25.4
2017-08-02T07:42:54.962Z,25.3
2017-08-02T07:43:59.855Z,25.3
2017-08-02T07:45:08.063Z,25.3
2017-08-02T07:46:13.524Z,25.3
2017-08-02T07:47:18.603Z,25.3
2017-08-02T07:48:23.155Z,25.3
2017-08-02T07:49:28.024Z,25.3
2017-08-02T07:50:34.741Z,25.3
2017-08-02T07:51:38.508Z,25.3
2017-08-02T07:52:43.534Z,25.3
2017-08-02T07:53:48.938Z,25.2
2017-08-02T07:54:52.891Z,25.2
2017-08-02T07:55:59.118Z,25.2
2017-08-02T07:57:02.833Z,25.2
2017-08-02T07:58:06.989Z,25.2
2017-08-02T07:59:12.084Z,25.2
2017-08-02T08:00:15.336Z,25.1
2017-08-02T08:01:21.724Z,23.1
2017-08-02T08:02:26.250Z,22.3
2017-08-02T08:03:30.998Z,22.2
2017-08-02T08:04:38.766Z,22.3
2017-08-02T08:05:43.629Z,22.2
2017-08-02T08:06:48.375Z,22.5
2017-08-02T08:07:54.801Z,22.6
2017-08-02T08:09:00.356Z,22.7
2017-08-02T08:10:05.291Z,22.9
2017-08-02T08:11:11.178Z,22.9
2017-08-02T08:12:16.973Z,22.9
2017-08-02T08:13:23.327Z,23.2
2017-08-02T08:14:28.652Z,22.9
2017-08-02T08:15:33.663Z,23.0
2017-08-02T08:16:37.655Z,23.2
2017-08-02T08:17:43.237Z,23.2
2017-08-02T08:18:48.046Z,23.2
2017-08-02T08:19:54.252Z,23.1
2017-08-02T08:20:58.992Z,23.3
2017-08-02T08:22:04.990Z,23.3
2017-08-02T08:23:12.961Z,23.3
2017-08-02T08:24:17.269Z,23.3
2017-08-02T08:25:22.423Z,23.5
2017-08-02T08:26:29.671Z,23.5
2017-08-02T08:27:34.243Z,23.1
2017-08-02T08:28:39.542Z,23.2
2017-08-02T08:29:45.398Z,23.1
2017-08-02T08:30:53.789Z,23.1
2017-08-02T08:32:01.181Z,24.7
2017-08-02T09:51:03.764Z,-40.0
2017-08-02T09:52:13.649Z,-40.0
2017-08-02T09:53:22.652Z,26.7
2017-08-02T09:54:29.513Z,26.8
2017-08-02T09:55:38.379Z,27.0
2017-08-02T09:56:47.157Z,27.0
2017-08-02T09:57:52.705Z,27.2
2017-08-02T09:59:00.322Z,27.3
2017-08-02T10:00:09.427Z,27.3
2017-08-02T10:01:16.966Z,27.4
2017-08-02T10:02:26.211Z,27.6
2017-08-02T10:03:31.856Z,27.5
2017-08-02T10:04:42.340Z,27.6
2017-08-02T10:05:50.110Z,27.2
2017-08-02T10:06:59.764Z,27.6
2017-08-02T10:08:08.595Z,27.9
2017-08-02T10:10:32.472Z,28.3
2017-08-02T10:11:39.428Z,29.0
2017-08-02T10:14:02.884Z,30.3
2017-08-02T10:18:55.197Z,32.2
2017-08-02T10:20:03.704Z,32.6
2017-08-02T10:21:10.478Z,33.0
2017-08-02T10:22:17.720Z,33.0
2017-08-02T10:23:25.964Z,32.9
2017-08-02T10:24:35.215Z,33.0
2017-08-02T10:25:43.820Z,32.6
2017-08-02T10:26:49.638Z,32.4
2017-08-02T10:27:58.533Z,32.6
2017-08-02T10:29:07.161Z,32.7
2017-08-02T10:31:27.996Z,32.2
2017-08-02T10:32:36.357Z,32.8
2017-08-02T10:33:45.891Z,33.1
2017-08-02T10:34:55.404Z,32.9
2017-08-02T10:36:02.724Z,33.0
2017-08-02T10:37:08.881Z,32.5
2017-08-02T10:38:17.923Z,32.7
2017-08-02T10:39:25.591Z,32.9
2017-08-02T10:40:33.276Z,32.1
2017-08-02T10:41:41.847Z,31.9
2017-08-02T10:42:49.829Z,32.1
2017-08-02T10:43:58.325Z,31.9
2017-08-02T10:45:06.239Z,32.7
2017-08-02T10:46:14.764Z,32.7
2017-08-02T10:47:23.245Z,32.7
2017-08-02T10:48:29.930Z,32.7
2017-08-02T10:49:38.755Z,32.7
2017-08-02T10:50:48.377Z,32.6
2017-08-02T10:53:09.523Z,32.7
2017-08-02T10:54:19.935Z,32.4
2017-08-02T10:56:40.491Z,32.4
2017-08-02T10:59:04.758Z,32.0
2017-08-02T11:00:13.895Z,31.7
2017-08-02T11:01:22.419Z,31.6
2017-08-02T11:02:32.295Z,31.8
2017-08-02T11:03:38.321Z,31.9
2017-08-02T11:04:45.276Z,32.5
2017-08-02T11:05:52.583Z,32.8
2017-08-02T11:06:59.971Z,32.6
2017-08-02T11:08:07.823Z,33.0
2017-08-02T11:09:16.790Z,32.8
2017-08-02T11:10:28.532Z,33.2
2017-08-02T11:11:36.630Z,33.8
2017-08-02T11:12:44.301Z,33.8
2017-08-02T11:13:52.736Z,33.9
2017-08-02T11:15:00.056Z,33.5
2017-08-02T11:16:08.948Z,33.3
2017-08-02T11:17:16.811Z,33.8
2017-08-02T11:18:22.048Z,33.7
2017-08-02T11:20:42.810Z,33.8
2017-08-02T11:21:52.230Z,33.0
2017-08-02T11:23:01.600Z,32.7
2017-08-02T11:24:11.346Z,33.2
2017-08-02T11:25:19.810Z,33.5
2017-08-02T11:27:36.341Z,33.2
2017-08-02T11:28:44.546Z,32.7
2017-08-02T11:29:52.460Z,33.5
2017-08-02T11:30:58.634Z,33.8
2017-08-02T11:32:05.827Z,34.0
2017-08-02T11:33:16.348Z,34.1
2017-08-02T11:34:25.528Z,34.0
2017-08-02T11:35:32.327Z,33.8
2017-08-02T11:36:40.828Z,33.9
2017-08-02T11:37:47.832Z,33.9
2017-08-02T11:38:56.418Z,33.4
2017-08-02T11:40:04.336Z,33.2
2017-08-02T11:42:22.584Z,32.9
2017-08-02T11:43:27.565Z,32.5
2017-08-02T11:44:31.715Z,32.8
2017-08-02T11:45:35.626Z,32.4
2017-08-02T11:46:46.849Z,32.4
2017-08-02T11:47:52.479Z,32.8
2017-08-02T11:49:01.480Z,31.9
2017-08-02T11:50:09.373Z,31.8
2017-08-02T11:51:18.529Z,32.1
2017-08-02T11:53:38.328Z,31.9
2017-08-02T11:54:45.362Z,32.0
2017-08-02T11:55:52.970Z,32.3
2017-08-02T11:57:02.093Z,32.4
2017-08-02T11:58:07.911Z,32.6
2017-08-02T11:59:18.534Z,32.8
2017-08-02T12:00:25.373Z,32.7
2017-08-02T12:01:34.382Z,33.0
2017-08-02T12:03:50.377Z,32.4
2017-08-02T12:04:54.649Z,32.7
2017-08-02T12:06:01.523Z,33.0
2017-08-02T12:07:10.518Z,33.4
2017-08-02T12:08:17.548Z,33.4
2017-08-02T12:09:25.068Z,33.3
2017-08-02T12:10:33.875Z,33.2
2017-08-02T12:11:41.756Z,33.1
2017-08-02T12:12:49.701Z,33.1
2017-08-02T12:13:55.914Z,33.3
2017-08-02T12:15:03.049Z,33.4
2017-08-02T12:16:09.865Z,33.3
2017-08-02T12:17:14.945Z,32.9
2017-08-02T12:18:20.544Z,32.8
2017-08-02T12:19:27.840Z,32.9
2017-08-02T12:20:35.215Z,32.9
2017-08-02T12:21:39.455Z,33.2
2017-08-02T12:23:57.552Z,33.8
2017-08-02T12:25:02.313Z,33.8
2017-08-02T12:26:09.231Z,33.6
2017-08-02T12:28:26.729Z,33.6
2017-08-02T12:29:34.126Z,33.5
2017-08-02T12:30:39.451Z,33.1
2017-08-02T12:31:44.619Z,32.9
2017-08-02T12:32:51.427Z,32.8
2017-08-02T12:33:58.757Z,32.7
2017-08-02T12:35:04.989Z,32.7
2017-08-02T12:36:11.323Z,32.7
2017-08-02T12:37:17.934Z,32.8
2017-08-02T12:38:24.294Z,33.0
2017-08-02T12:39:34.938Z,32.9
2017-08-02T12:40:44.440Z,32.7
2017-08-02T12:41:55.443Z,32.8
2017-08-02T12:43:04.105Z,32.9
2017-08-02T12:44:12.947Z,32.8
2017-08-02T12:46:31.521Z,32.6
2017-08-02T12:47:38.625Z,32.3
2017-08-02T12:48:44.616Z,32.3
2017-08-02T12:49:51.976Z,32.3
2017-08-02T12:51:00.016Z,32.2
2017-08-02T12:52:07.131Z,32.3
2017-08-02T12:53:12.910Z,32.2
2017-08-02T12:54:20.465Z,32.3
2017-08-02T12:55:26.466Z,32.6
2017-08-02T12:56:34.737Z,32.8
2017-08-02T12:57:40.975Z,32.9
2017-08-02T12:58:46.471Z,33.0
2017-08-02T12:59:56.477Z,33.2
2017-08-02T13:01:00.756Z,33.1
2017-08-02T13:02:08.365Z,33.0
2017-08-02T13:03:14.609Z,32.7
2017-08-02T13:04:22.699Z,32.4
2017-08-02T13:05:30.625Z,32.3
2017-08-02T13:06:38.998Z,32.2
2017-08-02T13:07:46.637Z,32.3
2017-08-02T13:08:55.013Z,32.2
2017-08-02T13:10:05.493Z,32.6
2017-08-02T13:11:10.818Z,32.7
2017-08-02T13:12:16.996Z,33.0
2017-08-02T13:13:24.065Z,33.4
2017-08-02T13:14:31.499Z,33.4
2017-08-02T13:15:36.171Z,33.6
2017-08-02T13:16:46.034Z,33.3
2017-08-02T13:17:51.021Z,33.5
2017-08-02T13:19:00.506Z,33.6
2017-08-02T13:20:09.905Z,33.8
2017-08-02T13:21:18.805Z,34.0
2017-08-02T13:22:28.282Z,34.0
2017-08-02T13:23:35.445Z,33.7
2017-08-02T13:25:51.825Z,33.3
2017-08-02T13:27:01.761Z,32.9
2017-08-02T13:28:10.712Z,33.0
2017-08-02T13:29:21.530Z,33.3
2017-08-02T13:30:30.571Z,33.5
2017-08-02T13:31:39.542Z,33.6
2017-08-02T13:32:46.040Z,33.4
2017-08-02T13:33:53.555Z,33.5
2017-08-02T13:35:03.537Z,33.6
2017-08-02T13:37:22.661Z,33.0
2017-08-02T13:38:33.093Z,32.9
2017-08-02T13:39:42.074Z,32.7
2017-08-02T13:40:50.003Z,32.8
2017-08-02T13:41:58.912Z,32.8
2017-08-02T13:43:07.048Z,33.1
2017-08-02T13:44:13.357Z,33.0
2017-08-02T13:45:22.877Z,33.2
2017-08-02T13:46:28.157Z,33.2
2017-08-02T13:47:34.529Z,33.4
2017-08-02T13:48:39.696Z,33.7
2017-08-02T13:49:45.562Z,34.0
2017-08-02T13:50:53.857Z,34.0
2017-08-02T13:52:02.570Z,34.0
2017-08-02T13:53:10.567Z,33.9
2017-08-02T13:54:18.571Z,33.8
2017-08-02T13:55:26.343Z,33.9
2017-08-02T13:56:32.034Z,33.8
2017-08-02T13:57:40.228Z,33.5
2017-08-02T13:58:47.364Z,33.4
2017-08-02T13:59:53.291Z,33.4
2017-08-02T14:01:00.926Z,33.5
2017-08-02T14:02:08.249Z,33.6
2017-08-02T14:03:16.082Z,33.5
2017-08-02T14:04:20.654Z,33.4
2017-08-02T14:05:27.586Z,33.5
2017-08-02T14:06:33.986Z,33.9
2017-08-02T14:07:40.770Z,34.2
2017-08-02T14:08:49.097Z,34.3
2017-08-02T14:09:58.630Z,34.3
2017-08-02T14:11:05.669Z,33.4
2017-08-02T14:12:14.077Z,33.2
2017-08-02T14:13:22.354Z,33.0
2017-08-02T14:14:31.108Z,32.9
2017-08-02T14:15:41.603Z,32.5
2017-08-02T14:21:38.339Z,31.8
2017-08-02T14:22:45.852Z,31.9
2017-08-02T14:23:55.468Z,32.3
2017-08-02T14:25:05.792Z,32.5
2017-08-02T14:26:14.625Z,32.5
2017-08-02T14:27:21.130Z,32.4
2017-08-02T14:28:32.067Z,32.3
2017-08-02T14:29:43.134Z,32.2
2017-08-02T14:30:51.319Z,32.2
2017-08-02T14:32:00.869Z,32.2
2017-08-02T14:33:08.637Z,32.5
2017-08-02T14:34:15.675Z,32.7
2017-08-02T14:35:24.644Z,32.5
2017-08-02T14:36:34.856Z,32.9
2017-08-02T14:37:44.659Z,33.4
2017-08-02T14:38:53.595Z,33.6
2017-08-02T14:40:02.660Z,33.3
2017-08-02T14:41:10.812Z,33.0
2017-08-02T14:42:19.338Z,33.2
2017-08-02T14:43:28.150Z,33.4
2017-08-02T14:44:35.668Z,33.4
2017-08-02T14:45:43.169Z,33.1
2017-08-02T14:46:49.868Z,32.6
2017-08-02T14:48:00.378Z,32.2
2017-08-02T14:49:06.671Z,32.2
2017-08-02T14:50:15.004Z,32.5
2017-08-02T14:51:23.806Z,32.7
2017-08-02T14:52:31.310Z,32.8
2017-08-02T14:53:42.168Z,32.8
2017-08-02T14:54:49.435Z,32.9
2017-08-02T14:55:59.285Z,32.8
2017-08-02T14:57:07.701Z,32.7
2017-08-02T14:58:16.329Z,32.7
2017-08-02T14:59:25.203Z,32.8
2017-08-02T15:00:32.963Z,32.6
2017-08-02T15:01:41.683Z,32.6
2017-08-02T15:02:49.449Z,32.3
2017-08-02T15:03:57.315Z,32.0
2017-08-02T15:05:06.056Z,32.0
2017-08-02T15:06:13.208Z,32.2
2017-08-02T15:07:21.460Z,32.1
2017-08-02T15:08:29.213Z,32.1
2017-08-02T15:09:37.964Z,32.3
2017-08-02T15:10:45.686Z,32.6
2017-08-02T15:11:52.292Z,33.0
2017-08-02T15:12:59.365Z,33.1
2017-08-02T15:14:09.487Z,33.3
2017-08-02T15:15:19.235Z,33.5
2017-08-02T15:16:27.342Z,33.5
2017-08-02T15:17:38.211Z,33.7
2017-08-02T15:18:45.121Z,33.9
2017-08-02T15:19:55.712Z,33.9
2017-08-02T15:21:02.717Z,33.9
2017-08-02T15:22:09.224Z,33.9
2017-08-02T15:23:18.026Z,34.2
2017-08-02T15:24:25.223Z,34.2
2017-08-02T15:25:34.245Z,34.0
2017-08-02T15:26:43.877Z,34.0
2017-08-02T15:27:52.660Z,33.8
2017-08-02T15:29:00.170Z,33.3
2017-08-02T15:30:05.701Z,32.9
2017-08-02T15:31:12.252Z,32.9
2017-08-02T15:32:18.220Z,32.8
2017-08-02T15:33:24.150Z,33.1
2017-08-02T15:34:30.601Z,33.3
2017-08-02T15:35:38.741Z,33.5
2017-08-02T15:36:46.488Z,33.9
2017-08-02T15:37:56.245Z,34.1
2017-08-02T15:39:04.246Z,34.0
2017-08-02T15:40:11.600Z,33.8
2017-08-02T15:41:18.252Z,33.7
2017-08-02T15:42:25.470Z,33.7
2017-08-02T15:43:32.105Z,33.5
2017-08-02T15:44:38.983Z,33.5
2017-08-02T15:45:48.261Z,33.4
2017-08-02T15:46:56.028Z,33.4
2017-08-02T15:48:05.762Z,33.3
2017-08-02T15:49:12.286Z,33.0
2017-08-02T15:50:18.887Z,32.6
2017-08-02T15:51:25.283Z,32.6
2017-08-02T15:52:34.274Z,32.3
2017-08-02T15:53:42.271Z,32.4
2017-08-02T15:54:46.933Z,32.2
2017-08-02T15:55:54.052Z,32.2
2017-08-02T15:57:01.100Z,32.2
2017-08-02T15:58:08.278Z,32.3
2017-08-02T15:59:14.100Z,32.0
2017-08-02T16:00:20.000Z,32.2
2017-08-02T16:01:27.583Z,32.4
2017-08-02T16:02:36.819Z,32.5
2017-08-02T16:03:41.901Z,32.5
2017-08-02T16:04:47.418Z,32.2
2017-08-02T16:05:57.293Z,32.2
2017-08-02T16:07:03.723Z,32.2
2017-08-02T16:08:10.960Z,32.3
2017-08-02T16:09:16.954Z,32.4
2017-08-02T16:10:23.807Z,32.3
2017-08-02T16:11:30.279Z,32.4
2017-08-02T16:12:37.813Z,32.4
2017-08-02T16:13:46.817Z,32.1
2017-08-02T16:14:52.004Z,32.2
2017-08-02T16:15:59.113Z,32.4
2017-08-02T16:17:05.864Z,32.4
2017-08-02T16:18:14.245Z,32.4
2017-08-02T16:19:21.124Z,32.3
2017-08-02T16:20:31.429Z,32.3
2017-08-02T16:21:41.842Z,32.2
2017-08-02T16:22:49.091Z,32.1
2017-08-02T16:23:55.640Z,32.3
2017-08-02T16:25:01.724Z,32.1
2017-08-02T16:26:09.510Z,32.0
2017-08-02T16:27:17.881Z,32.0